Honor, Michigan
Current Conditions -  °F | °C
As of 3:13 PM on Wednesday 26 Nov 2014 (Local Time) from KFKS Reporting Station
Overcast Overcast  
Wind Chill: 29°   Ceiling: 2700
Heat Index: 29°   Visibility: 10mi
Dew Point: 26°   Wind: 0mph
Humidity: 87%   Direction: NA
Pressure: 30.13"   Gusts: NA
Location:  44.66°N, 86.02°W
Report Text: KFKS 262013Z AUTO 00000KT 10SM OVC027 M01/M03 A3013 RMK AO2 T10151034
Loading
Personal Weather Stations






























Interactive Weather Map New forecast layout! Learn more

10-Day Weather Forecast

Advertisements
Track Severe Weather on mobile